Time;durP1;ratioP1;P1;durP2;ratioP2;P2;SDS_P1;SDS_P2;PMS_P1;PMS_P2;Temp;Humidity;BMP_temperature;BMP_pressure;BME280_temperature;BME280_humidity;BME280_pressure;Samples;Min_cycle;Max_cycle;Signal;HPM_P1;HPM_P2
2024/03/15 00:00:05;;;;;;;10.85;8.15;;;11.60;99.90;;;;;;5129144;27;20018;-68
2024/03/15 00:02:51;;;;;;;11.88;8.55;;;11.60;99.90;;;;;;5129840;27;20054;-70
2024/03/15 00:05:37;;;;;;;12.80;9.30;;;11.60;99.90;;;;;;5131508;27;20487;-70
2024/03/15 00:08:23;;;;;;;12.48;9.13;;;11.60;99.90;;;;;;5127071;27;20107;-72
2024/03/15 00:11:09;;;;;;;13.88;9.52;;;11.60;99.90;;;;;;5133737;27;20406;-72
2024/03/15 00:13:55;;;;;;;13.40;9.30;;;11.60;99.90;;;;;;5119068;27;20031;-72
2024/03/15 00:16:41;;;;;;;13.50;9.75;;;11.50;99.90;;;;;;5132368;27;20034;-67
2024/03/15 00:19:27;;;;;;;23.02;9.68;;;11.60;99.90;;;;;;5126819;27;20030;-67
2024/03/15 00:22:12;;;;;;;12.70;9.10;;;11.60;99.90;;;;;;5134685;27;20046;-67
2024/03/15 00:24:58;;;;;;;15.25;9.88;;;11.50;99.90;;;;;;5137326;27;20054;-67
2024/03/15 00:27:44;;;;;;;15.35;9.65;;;11.50;99.90;;;;;;5113282;27;20031;-66
2024/03/15 00:30:30;;;;;;;14.18;10.15;;;11.50;99.90;;;;;;5135649;27;20069;-67
2024/03/15 00:33:16;;;;;;;15.02;10.70;;;11.50;99.90;;;;;;5130312;27;20390;-66
2024/03/15 00:36:02;;;;;;;14.23;9.55;;;11.50;99.90;;;;;;5129792;27;20113;-67
2024/03/15 00:38:48;;;;;;;16.08;10.23;;;11.50;99.90;;;;;;5124928;27;20539;-67
2024/03/15 00:41:35;;;;;;;14.73;10.13;;;11.50;99.90;;;;;;5127821;27;20046;-66
2024/03/15 00:44:21;;;;;;;13.25;10.02;;;11.50;99.90;;;;;;5121104;27;20019;-67
2024/03/15 00:47:07;;;;;;;13.95;10.38;;;11.50;99.90;;;;;;5112608;27;20437;-67
2024/03/15 00:49:53;;;;;;;14.25;9.90;;;11.50;99.90;;;;;;5139605;27;20114;-67
2024/03/15 00:52:39;;;;;;;14.70;9.77;;;11.50;99.90;;;;;;5139215;27;20034;-66
2024/03/15 00:55:30;;;;;;;14.57;10.25;;;11.50;99.90;;;;;;5135285;27;20367;-66
2024/03/15 00:58:18;;;;;;;13.98;9.82;;;11.50;99.90;;;;;;5131114;27;20066;-66
2024/03/15 01:01:04;;;;;;;14.20;10.02;;;11.40;99.90;;;;;;5143961;27;20046;-66
2024/03/15 01:03:50;;;;;;;15.27;9.98;;;11.40;99.90;;;;;;5123671;27;20467;-66
2024/03/15 01:06:37;;;;;;;14.23;9.85;;;11.40;99.90;;;;;;5138706;27;20040;-66
2024/03/15 01:09:24;;;;;;;16.08;10.02;;;11.40;99.90;;;;;;5144829;27;20031;-67
2024/03/15 01:12:10;;;;;;;12.52;9.30;;;11.40;99.90;;;;;;5116169;27;20498;-66
2024/03/15 01:14:56;;;;;;;14.43;11.02;;;11.40;99.90;;;;;;5119199;27;20050;-66
2024/03/15 01:17:42;;;;;;;17.17;10.82;;;11.40;99.90;;;;;;5121390;27;20122;-66
2024/03/15 01:20:29;;;;;;;15.32;10.38;;;11.40;99.90;;;;;;5127675;27;20033;-66
2024/03/15 01:23:15;;;;;;;12.75;10.32;;;11.30;99.90;;;;;;5142346;27;20041;-67
2024/03/15 01:26:01;;;;;;;13.75;9.57;;;11.40;99.90;;;;;;5120174;27;20056;-66
2024/03/15 01:28:47;;;;;;;14.55;10.25;;;11.30;99.90;;;;;;5143594;27;20060;-66
2024/03/15 01:31:33;;;;;;;15.63;10.70;;;11.30;99.90;;;;;;5126040;27;20136;-66
2024/03/15 01:34:19;;;;;;;13.93;9.32;;;11.30;99.90;;;;;;5137973;27;20081;-66
2024/03/15 01:37:04;;;;;;;14.07;9.70;;;11.30;99.90;;;;;;5115469;27;20028;-66
2024/03/15 01:39:50;;;;;;;13.13;10.20;;;11.30;99.90;;;;;;5130174;27;20027;-66
2024/03/15 01:42:36;;;;;;;16.88;11.60;;;11.30;99.90;;;;;;5142240;27;20437;-67
2024/03/15 01:45:23;;;;;;;15.38;10.90;;;11.30;99.90;;;;;;5134669;27;20443;-67
2024/03/15 01:48:09;;;;;;;15.70;11.27;;;11.30;99.90;;;;;;5132630;27;20027;-66
2024/03/15 01:50:55;;;;;;;15.50;10.93;;;11.30;99.90;;;;;;5133189;27;20027;-67
2024/03/15 01:53:43;;;;;;;18.10;11.95;;;11.30;99.90;;;;;;5135195;27;20100;-66
2024/03/15 01:56:29;;;;;;;15.32;10.63;;;11.20;99.90;;;;;;5121725;27;20117;-66
2024/03/15 01:59:15;;;;;;;15.88;10.98;;;11.20;99.90;;;;;;5142149;27;20097;-66
2024/03/15 02:02:05;;;;;;;16.70;11.07;;;11.30;99.90;;;;;;5146435;27;20122;-66
2024/03/15 02:04:54;;;;;;;16.92;11.55;;;11.20;99.90;;;;;;5139579;27;20031;-66
2024/03/15 02:07:39;;;;;;;20.17;12.20;;;11.20;99.90;;;;;;5122833;27;20034;-66
2024/03/15 02:10:26;;;;;;;15.30;11.38;;;11.30;99.90;;;;;;5139130;27;20098;-66
2024/03/15 02:13:15;;;;;;;15.95;11.98;;;11.30;99.90;;;;;;5147070;27;20069;-66
2024/03/15 02:16:01;;;;;;;15.40;11.63;;;11.20;99.90;;;;;;5139131;27;20120;-66
2024/03/15 02:18:50;;;;;;;15.82;12.05;;;11.20;99.90;;;;;;5130030;27;20028;-66
2024/03/15 02:21:36;;;;;;;16.35;11.98;;;11.30;99.90;;;;;;5132152;27;20217;-66
2024/03/15 02:24:22;;;;;;;16.50;12.25;;;11.20;99.90;;;;;;5138998;27;20019;-66
2024/03/15 02:27:13;;;;;;;17.10;11.15;;;11.20;99.90;;;;;;5112099;27;20073;-66
2024/03/15 02:29:59;;;;;;;18.38;14.18;;;11.10;99.90;;;;;;5126890;27;20034;-66
2024/03/15 02:32:45;;;;;;;17.92;12.70;;;11.10;99.90;;;;;;5139441;27;20035;-68
2024/03/15 02:35:32;;;;;;;17.48;12.45;;;11.10;99.90;;;;;;5145467;27;20033;-66
2024/03/15 02:38:18;;;;;;;18.60;14.20;;;11.10;99.90;;;;;;5155547;27;20121;-64
2024/03/15 02:41:04;;;;;;;17.75;13.10;;;11.10;99.90;;;;;;5127496;27;20100;-65
2024/03/15 02:43:50;;;;;;;20.40;13.45;;;11.10;99.90;;;;;;5117309;27;20027;-65
2024/03/15 02:46:35;;;;;;;17.33;13.15;;;11.10;99.90;;;;;;5132122;27;20062;-65
2024/03/15 02:49:21;;;;;;;20.60;13.00;;;11.10;99.90;;;;;;5141667;27;20030;-65
2024/03/15 02:52:07;;;;;;;19.25;13.10;;;11.00;99.90;;;;;;5143681;27;20037;-65
2024/03/15 02:54:54;;;;;;;18.90;12.80;;;11.10;99.90;;;;;;5114702;27;20034;-65
2024/03/15 02:57:40;;;;;;;20.25;13.07;;;11.00;99.90;;;;;;5132555;27;20215;-66
2024/03/15 03:00:26;;;;;;;20.33;14.18;;;11.00;99.90;;;;;;5128644;27;20105;-66
2024/03/15 03:03:12;;;;;;;17.95;13.02;;;11.00;99.90;;;;;;5122063;27;20057;-65
2024/03/15 03:05:58;;;;;;;20.55;14.10;;;11.00;99.90;;;;;;5140409;27;20143;-66
2024/03/15 03:08:44;;;;;;;20.80;13.75;;;11.00;99.90;;;;;;5126619;27;20403;-66
2024/03/15 03:11:31;;;;;;;16.58;13.35;;;11.00;99.90;;;;;;5126684;27;20039;-66
2024/03/15 03:14:17;;;;;;;24.58;14.23;;;11.00;99.90;;;;;;5133604;27;20027;-65
2024/03/15 03:17:03;;;;;;;23.70;14.60;;;11.00;99.90;;;;;;5133228;27;20117;-64
2024/03/15 03:19:49;;;;;;;20.00;13.85;;;10.90;99.90;;;;;;5123042;27;20031;-65
2024/03/15 03:22:35;;;;;;;21.38;14.07;;;10.90;99.90;;;;;;5115862;27;20130;-65
2024/03/15 03:25:21;;;;;;;19.88;13.20;;;11.00;99.90;;;;;;5119350;27;20317;-65
2024/03/15 03:28:07;;;;;;;23.65;15.65;;;10.90;99.90;;;;;;5111365;28;20040;-65
2024/03/15 03:30:52;;;;;;;19.48;13.68;;;10.90;99.90;;;;;;5092143;27;20036;-65
2024/03/15 03:33:38;;;;;;;20.17;14.25;;;10.90;99.90;;;;;;5120443;27;20023;-65
2024/03/15 03:36:26;;;;;;;19.75;14.02;;;10.90;99.90;;;;;;5119377;27;20039;-65
2024/03/15 03:39:13;;;;;;;19.35;14.32;;;10.90;99.90;;;;;;5119114;27;20032;-66
2024/03/15 03:41:59;;;;;;;22.88;14.90;;;10.90;99.90;;;;;;5094576;27;20044;-66
2024/03/15 03:44:45;;;;;;;20.70;14.23;;;10.90;99.90;;;;;;5107880;27;20035;-66
2024/03/15 03:47:31;;;;;;;19.08;13.90;;;10.90;99.90;;;;;;5114509;27;20046;-66
2024/03/15 03:50:17;;;;;;;24.77;15.88;;;10.90;99.90;;;;;;5118552;27;20476;-66
2024/03/15 03:53:03;;;;;;;21.98;15.18;;;10.90;99.90;;;;;;5103875;27;20042;-66
2024/03/15 03:55:50;;;;;;;20.90;14.32;;;10.90;99.90;;;;;;5114400;27;20038;-65
2024/03/15 03:58:36;;;;;;;21.40;14.80;;;10.90;99.90;;;;;;5111986;27;20042;-66
2024/03/15 04:01:22;;;;;;;22.33;16.15;;;10.90;99.90;;;;;;5108807;27;20079;-66
2024/03/15 04:04:11;;;;;;;21.85;14.63;;;10.90;99.90;;;;;;5093310;27;20036;-65
2024/03/15 04:06:57;;;;;;;22.02;14.38;;;10.90;99.90;;;;;;5106683;27;20043;-65
2024/03/15 04:09:43;;;;;;;23.02;16.88;;;10.90;99.90;;;;;;5122374;27;20068;-66
2024/03/15 04:12:29;;;;;;;21.38;15.27;;;10.80;99.90;;;;;;5119794;27;20481;-66
2024/03/15 04:15:17;;;;;;;22.27;15.30;;;10.90;99.90;;;;;;5104873;27;20429;-66
2024/03/15 04:18:03;;;;;;;20.88;16.27;;;10.90;99.90;;;;;;5112802;27;20470;-70
2024/03/15 04:20:49;;;;;;;23.33;15.65;;;10.90;99.90;;;;;;5103726;27;20054;-70
2024/03/15 04:23:35;;;;;;;19.58;15.52;;;10.90;99.90;;;;;;5125354;27;20032;-70
2024/03/15 04:26:21;;;;;;;22.95;16.77;;;10.80;99.90;;;;;;5133440;27;20090;-71
2024/03/15 04:29:08;;;;;;;25.27;15.63;;;10.90;99.90;;;;;;5122033;27;20581;-71
2024/03/15 04:31:55;;;;;;;20.65;14.90;;;10.80;99.90;;;;;;5132250;27;20027;-71
2024/03/15 04:34:41;;;;;;;23.88;16.27;;;10.90;99.90;;;;;;5134571;27;20031;-71
2024/03/15 04:37:27;;;;;;;21.02;15.13;;;10.90;99.90;;;;;;5120917;27;20038;-71
2024/03/15 04:40:15;;;;;;;24.00;16.17;;;10.80;99.90;;;;;;5123097;27;20035;-70
2024/03/15 04:43:02;;;;;;;22.98;15.07;;;10.90;99.90;;;;;;5144682;27;20134;-72
2024/03/15 04:45:48;;;;;;;21.00;14.75;;;10.90;99.90;;;;;;5124281;27;20132;-72
2024/03/15 04:48:36;;;;;;;23.02;14.93;;;10.90;99.90;;;;;;5135449;27;20069;-72
2024/03/15 04:51:22;;;;;;;22.60;16.08;;;10.90;99.90;;;;;;5125070;27;20038;-72
2024/03/15 04:54:08;;;;;;;23.52;16.40;;;10.90;99.90;;;;;;5132225;27;20367;-72
2024/03/15 04:56:54;;;;;;;22.83;16.88;;;10.90;99.90;;;;;;5115099;27;20031;-70
2024/03/15 04:59:40;;;;;;;24.40;16.00;;;10.90;99.90;;;;;;5134318;27;20046;-72
2024/03/15 05:02:28;;;;;;;21.52;15.20;;;10.80;99.90;;;;;;5135953;27;20130;-71
2024/03/15 05:05:15;;;;;;;25.10;17.42;;;10.90;99.90;;;;;;5126129;27;20039;-72
2024/03/15 05:08:02;;;;;;;24.38;17.15;;;10.90;99.90;;;;;;5118554;27;20039;-72
2024/03/15 05:10:48;;;;;;;24.30;17.60;;;10.80;99.90;;;;;;5129780;27;20561;-72
2024/03/15 05:13:35;;;;;;;25.45;16.65;;;10.80;99.90;;;;;;5118411;27;20114;-72
2024/03/15 05:16:22;;;;;;;25.73;16.17;;;10.80;99.90;;;;;;5131250;27;20042;-72
2024/03/15 05:19:08;;;;;;;26.27;18.30;;;10.80;99.90;;;;;;5137648;27;20217;-71
2024/03/15 05:21:54;;;;;;;24.75;16.33;;;10.80;99.90;;;;;;5141094;27;20085;-72
2024/03/15 05:24:40;;;;;;;25.63;17.00;;;10.80;99.90;;;;;;5117768;27;20031;-72
2024/03/15 05:27:26;;;;;;;26.00;17.98;;;10.70;99.90;;;;;;5112101;27;20045;-72
2024/03/15 05:30:12;;;;;;;22.20;16.30;;;10.80;99.90;;;;;;5127525;27;20035;-72
2024/03/15 05:32:58;;;;;;;27.33;16.95;;;10.70;99.90;;;;;;5120149;27;20027;-68
2024/03/15 05:35:44;;;;;;;25.27;17.02;;;10.70;99.90;;;;;;5126365;27;20061;-68
2024/03/15 05:38:33;;;;;;;22.75;15.80;;;10.70;99.90;;;;;;5127402;27;20066;-68
2024/03/15 05:41:19;;;;;;;26.90;18.20;;;10.70;99.90;;;;;;5130313;27;20512;-67
2024/03/15 05:44:05;;;;;;;25.70;16.92;;;10.70;99.90;;;;;;5130906;27;20060;-68
2024/03/15 05:46:51;;;;;;;21.98;16.02;;;10.70;99.90;;;;;;5125516;27;20101;-67
2024/03/15 05:49:37;;;;;;;26.25;16.73;;;10.70;99.90;;;;;;5121569;27;20422;-68
2024/03/15 05:52:24;;;;;;;31.38;17.55;;;10.70;99.90;;;;;;5128632;27;20046;-68
2024/03/15 05:55:11;;;;;;;21.65;15.90;;;10.70;99.90;;;;;;5122010;27;20080;-68
2024/03/15 05:57:58;;;;;;;25.58;17.00;;;10.70;99.90;;;;;;5120782;27;20043;-67
2024/03/15 06:00:43;;;;;;;23.80;16.60;;;10.70;99.90;;;;;;5127857;27;20030;-63
2024/03/15 06:03:29;;;;;;;22.80;17.63;;;10.70;99.90;;;;;;5118931;27;20035;-63
2024/03/15 06:06:15;;;;;;;25.10;16.73;;;10.70;99.90;;;;;;5132546;27;20023;-63
2024/03/15 06:09:04;;;;;;;25.20;15.82;;;10.70;99.90;;;;;;5128339;27;20466;-68
2024/03/15 06:11:51;;;;;;;23.60;16.30;;;10.80;99.90;;;;;;5136615;27;20727;-69
2024/03/15 06:14:37;;;;;;;27.60;16.75;;;10.80;99.90;;;;;;5133363;27;20038;-68
2024/03/15 06:17:23;;;;;;;26.50;16.92;;;10.80;99.90;;;;;;5132514;27;20029;-69
2024/03/15 06:20:10;;;;;;;23.63;16.73;;;10.90;99.90;;;;;;5133199;27;20030;-68
2024/03/15 06:22:55;;;;;;;31.67;16.25;;;10.90;99.90;;;;;;5130428;27;20399;-69
2024/03/15 06:25:43;;;;;;;25.08;17.17;;;11.00;99.90;;;;;;5141921;27;20034;-69
2024/03/15 06:28:29;;;;;;;24.75;16.80;;;11.00;99.90;;;;;;5121941;27;20379;-69
2024/03/15 06:31:16;;;;;;;27.80;16.08;;;11.10;99.90;;;;;;5132421;27;20229;-69
2024/03/15 06:34:07;;;;;;;24.13;16.75;;;11.10;99.90;;;;;;5126407;27;20053;-69
2024/03/15 06:36:54;;;;;;;22.02;15.13;;;11.20;99.90;;;;;;5137343;27;20025;-69
2024/03/15 06:40:01;;;;;;;25.55;15.82;;;11.20;99.90;;;;;;5130839;27;20035;-70
2024/03/15 06:43:09;;;;;;;23.15;15.45;;;11.30;99.90;;;;;;5116131;27;20188;-71
2024/03/15 06:45:57;;;;;;;30.75;15.95;;;11.40;99.90;;;;;;5135119;27;20335;-71
2024/03/15 06:48:55;;;;;;;22.50;14.98;;;11.50;99.90;;;;;;5132403;27;20033;-71
2024/03/15 06:54:45;;;;;;;23.63;15.02;;;11.60;99.90;;;;;;5119015;27;20027;-71
2024/03/15 06:57:32;;;;;;;24.50;14.98;;;11.70;99.90;;;;;;5113845;27;20077;-71
2024/03/15 07:00:18;;;;;;;22.25;14.30;;;11.80;99.90;;;;;;5125226;27;20046;-70
2024/03/15 07:03:07;;;;;;;23.52;13.73;;;11.90;99.90;;;;;;5125300;27;20047;-69
2024/03/15 07:05:53;;;;;;;22.85;14.77;;;12.00;99.90;;;;;;5132145;27;20031;-69
2024/03/15 07:08:39;;;;;;;22.42;14.88;;;12.00;99.90;;;;;;5125698;27;20039;-70
2024/03/15 07:11:34;;;;;;;20.13;14.02;;;12.20;99.90;;;;;;5120062;27;20074;-71
2024/03/15 07:14:20;;;;;;;22.00;13.20;;;12.20;99.90;;;;;;5125287;27;20036;-70
2024/03/15 07:17:09;;;;;;;21.35;13.80;;;12.40;99.90;;;;;;5137622;27;20039;-71
2024/03/15 07:19:55;;;;;;;22.25;14.80;;;12.40;99.90;;;;;;5122220;27;20376;-71
2024/03/15 07:22:41;;;;;;;26.05;14.48;;;12.40;99.90;;;;;;5134370;27;20062;-71
2024/03/15 07:25:27;;;;;;;24.23;14.45;;;12.50;99.90;;;;;;5142803;27;20476;-67
2024/03/15 07:28:13;;;;;;;19.92;13.40;;;12.60;99.90;;;;;;5122670;27;20116;-72
2024/03/15 07:31:00;;;;;;;18.85;12.10;;;12.60;99.90;;;;;;5137488;27;20048;-71
2024/03/15 07:33:46;;;;;;;18.67;12.15;;;12.60;99.90;;;;;;5119448;27;20035;-74
2024/03/15 07:36:32;;;;;;;18.30;12.38;;;12.70;99.90;;;;;;5128223;27;20031;-69
2024/03/15 07:39:18;;;;;;;16.52;12.02;;;12.80;99.90;;;;;;5135634;27;20087;-70
2024/03/15 07:42:04;;;;;;;16.95;11.30;;;12.90;99.90;;;;;;5145424;27;20066;-70
2024/03/15 07:44:50;;;;;;;19.25;12.45;;;12.90;99.90;;;;;;5126452;27;20066;-68
2024/03/15 07:47:37;;;;;;;16.08;10.98;;;13.00;99.90;;;;;;5124264;27;20031;-69
2024/03/15 07:50:26;;;;;;;17.90;11.48;;;13.00;99.90;;;;;;5141036;27;20064;-69
2024/03/15 07:53:15;;;;;;;22.60;13.57;;;13.10;99.90;;;;;;5118833;27;20027;-70
2024/03/15 07:56:03;;;;;;;18.95;11.68;;;13.10;99.90;;;;;;5134795;27;20054;-70
2024/03/15 07:58:52;;;;;;;21.00;10.88;;;13.20;99.90;;;;;;5115841;27;20414;-69
2024/03/15 08:01:38;;;;;;;18.05;11.88;;;13.30;99.90;;;;;;5125849;27;20049;-72
2024/03/15 08:04:25;;;;;;;18.73;10.63;;;13.30;99.90;;;;;;5123266;27;20035;-71
2024/03/15 08:07:11;;;;;;;21.63;11.95;;;13.40;99.90;;;;;;5130455;27;20042;-72
2024/03/15 08:09:57;;;;;;;18.17;11.23;;;13.50;99.90;;;;;;5122571;27;20024;-71
2024/03/15 08:12:43;;;;;;;21.73;10.82;;;13.60;99.90;;;;;;5124998;27;20565;-72
2024/03/15 08:15:32;;;;;;;17.08;11.23;;;13.60;99.90;;;;;;5129247;27;20033;-72
2024/03/15 08:18:18;;;;;;;16.20;10.27;;;13.60;99.90;;;;;;5134677;27;20614;-74
2024/03/15 08:21:07;;;;;;;17.67;10.65;;;13.70;99.90;;;;;;5135602;27;20082;-74
2024/03/15 08:23:53;;;;;;;19.45;11.60;;;13.70;99.90;;;;;;5126458;27;20023;-74
2024/03/15 08:26:41;;;;;;;19.45;11.63;;;13.80;99.90;;;;;;5125435;27;20045;-74
2024/03/15 08:29:27;;;;;;;16.25;10.77;;;13.80;99.90;;;;;;5128639;27;20062;-75
2024/03/15 08:32:13;;;;;;;18.92;10.18;;;13.80;99.90;;;;;;5119684;27;20027;-75
2024/03/15 08:34:59;;;;;;;14.93;10.38;;;14.00;99.90;;;;;;5129751;27;20069;-74
2024/03/15 08:37:46;;;;;;;13.35;9.60;;;14.10;99.90;;;;;;5129453;27;20479;-74
2024/03/15 08:40:32;;;;;;;13.35;8.82;;;14.20;99.90;;;;;;5124021;27;20032;-70
2024/03/15 08:43:18;;;;;;;14.40;9.70;;;14.30;99.90;;;;;;5119463;27;20043;-70
2024/03/15 08:46:05;;;;;;;17.27;9.73;;;14.40;99.90;;;;;;5122750;27;20027;-70
2024/03/15 08:48:51;;;;;;;16.65;9.43;;;14.40;99.90;;;;;;5107809;27;20551;-70
2024/03/15 08:51:37;;;;;;;13.23;8.88;;;14.60;99.90;;;;;;5117607;27;20031;-69
2024/03/15 08:54:24;;;;;;;13.45;9.40;;;14.60;99.90;;;;;;5122765;27;20428;-69
2024/03/15 08:57:12;;;;;;;12.65;9.13;;;14.70;99.90;;;;;;5127050;27;20029;-70
2024/03/15 08:59:59;;;;;;;16.42;8.98;;;14.70;99.90;;;;;;5125341;27;20172;-70
2024/03/15 09:02:45;;;;;;;12.88;8.75;;;14.80;99.90;;;;;;5129117;27;20103;-68
2024/03/15 09:05:31;;;;;;;15.77;9.20;;;14.90;99.90;;;;;;5118149;27;20498;-69
2024/03/15 09:08:19;;;;;;;14.95;9.00;;;14.90;99.90;;;;;;5128304;27;20038;-69
2024/03/15 09:11:06;;;;;;;14.38;8.07;;;14.90;99.90;;;;;;5130397;27;20031;-70
2024/03/15 09:13:56;;;;;;;14.27;9.48;;;15.00;99.90;;;;;;5113148;27;20048;-69
2024/03/15 09:16:42;;;;;;;13.73;8.85;;;15.00;99.90;;;;;;5121540;27;20035;-69
2024/03/15 09:19:28;;;;;;;14.48;8.80;;;15.10;99.90;;;;;;5127462;27;20110;-69
2024/03/15 09:22:16;;;;;;;15.13;8.90;;;15.20;99.90;;;;;;5128026;27;20645;-69
2024/03/15 09:25:02;;;;;;;14.60;8.93;;;15.20;99.90;;;;;;5137046;27;20034;-69
2024/03/15 09:27:52;;;;;;;14.65;9.38;;;15.30;99.90;;;;;;5121834;27;20043;-69
2024/03/15 09:30:53;;;;;;;13.75;9.10;;;15.40;99.90;;;;;;5123134;27;20869;-70
2024/03/15 09:33:40;;;;;;;14.30;8.63;;;15.40;99.90;;;;;;5125602;27;20395;-70
2024/03/15 09:36:28;;;;;;;12.07;8.18;;;15.60;99.90;;;;;;5126907;27;20031;-70
2024/03/15 09:39:15;;;;;;;11.82;7.97;;;15.60;99.90;;;;;;5132064;27;20031;-70
2024/03/15 09:42:02;;;;;;;12.10;8.23;;;15.70;99.80;;;;;;5133626;27;20127;-70
2024/03/15 09:44:49;;;;;;;11.82;7.38;;;15.80;99.70;;;;;;5128198;27;20110;-70
2024/03/15 09:47:37;;;;;;;12.93;8.15;;;15.90;99.60;;;;;;5121747;27;20027;-70
2024/03/15 09:50:24;;;;;;;12.32;8.10;;;16.00;99.40;;;;;;5128924;27;20027;-70
2024/03/15 09:53:11;;;;;;;15.38;8.07;;;16.10;99.30;;;;;;5147068;27;20030;-70
2024/03/15 09:55:57;;;;;;;9.43;6.50;;;16.10;99.10;;;;;;5121096;27;20038;-71
2024/03/15 09:58:49;;;;;;;11.75;7.47;;;16.20;98.90;;;;;;5135656;27;20039;-70
2024/03/15 10:01:35;;;;;;;11.27;6.85;;;16.20;98.70;;;;;;5130877;27;20100;-72
2024/03/15 10:04:21;;;;;;;11.07;6.85;;;16.20;98.70;;;;;;5119058;27;20410;-72
2024/03/15 10:07:08;;;;;;;10.85;7.60;;;16.20;98.60;;;;;;5131454;27;20099;-72
2024/03/15 10:09:54;;;;;;;12.18;7.47;;;16.20;98.60;;;;;;5138753;27;20034;-72
2024/03/15 10:12:50;;;;;;;11.90;7.30;;;16.30;98.70;;;;;;5133141;27;20031;-72
2024/03/15 10:15:42;;;;;;;;;;;16.30;98.40;;;;;;5147032;27;20038;-72
2024/03/15 10:18:31;;;;;;;10.20;6.88;;;16.40;98.80;;;;;;5124615;27;20213;-72
2024/03/15 10:21:17;;;;;;;11.77;6.60;;;16.40;98.50;;;;;;5125905;27;20066;-72
2024/03/15 10:24:03;;;;;;;10.45;6.53;;;16.40;98.30;;;;;;5136715;27;20579;-72
2024/03/15 10:26:51;;;;;;;12.20;7.05;;;16.50;98.30;;;;;;5136236;27;20130;-72
2024/03/15 10:29:37;;;;;;;12.23;6.95;;;16.60;98.20;;;;;;5132072;27;20023;-72
2024/03/15 10:32:25;;;;;;;10.98;7.20;;;16.60;98.10;;;;;;5132942;27;20031;-72
2024/03/15 10:35:22;;;;;;;11.68;6.68;;;16.70;97.90;;;;;;5136390;27;20039;-72
2024/03/15 10:38:12;;;;;;;13.55;7.70;;;16.80;97.90;;;;;;5131455;27;20038;-72
2024/03/15 10:40:59;;;;;;;10.50;6.50;;;16.80;97.70;;;;;;5129722;27;20490;-72
2024/03/15 10:43:45;;;;;;;10.13;6.60;;;16.90;97.70;;;;;;5135429;27;20035;-74
2024/03/15 10:46:32;;;;;;;10.45;6.78;;;16.90;97.50;;;;;;5132363;27;20510;-70
2024/03/15 10:49:19;;;;;;;10.25;6.40;;;17.00;97.50;;;;;;5130208;27;20625;-73
2024/03/15 10:52:06;;;;;;;8.70;6.20;;;17.00;97.50;;;;;;5127564;27;20031;-71
2024/03/15 10:54:53;;;;;;;10.23;6.72;;;17.10;97.40;;;;;;5125545;27;20041;-72
2024/03/15 10:57:39;;;;;;;10.73;6.85;;;17.10;97.20;;;;;;5123264;27;20130;-72
2024/03/15 11:00:28;;;;;;;10.43;5.65;;;17.10;97.10;;;;;;5116384;27;20035;-71
2024/03/15 11:03:25;;;;;;;10.98;6.13;;;17.10;97.10;;;;;;5120340;27;20383;-69
2024/03/15 11:06:11;;;;;;;10.38;5.43;;;17.10;97.00;;;;;;5130707;27;20436;-71
2024/03/15 11:09:09;;;;;;;8.68;5.30;;;17.10;97.00;;;;;;5131007;27;20099;-68
2024/03/15 11:12:05;;;;;;;9.60;5.68;;;17.20;96.90;;;;;;5130583;27;20027;-68
2024/03/15 11:14:51;;;;;;;8.38;5.20;;;17.20;96.70;;;;;;5128955;27;20027;-68
2024/03/15 11:17:37;;;;;;;9.98;6.68;;;17.20;96.60;;;;;;5132857;27;20525;-69
2024/03/15 11:20:23;;;;;;;8.85;5.35;;;17.30;96.60;;;;;;5128028;27;20570;-68
2024/03/15 11:23:16;;;;;;;10.93;4.90;;;17.30;96.50;;;;;;5141969;27;20047;-67
2024/03/15 11:26:08;;;;;;;8.18;5.10;;;17.30;96.40;;;;;;5126752;27;20040;-68
2024/03/15 11:28:54;;;;;;;10.20;6.40;;;17.40;96.40;;;;;;5133534;27;20068;-69
2024/03/15 11:31:43;;;;;;;10.50;5.47;;;17.50;96.40;;;;;;5145400;27;20027;-68
2024/03/15 11:34:29;;;;;;;9.63;5.88;;;17.50;96.30;;;;;;5127616;27;20115;-69
2024/03/15 11:37:20;;;;;;;7.97;5.78;;;17.50;96.20;;;;;;5136624;27;20110;-69
2024/03/15 11:40:10;;;;;;;9.90;5.85;;;17.60;96.10;;;;;;5121994;27;20081;-70
2024/03/15 11:42:56;;;;;;;11.70;5.30;;;17.60;96.00;;;;;;5127494;27;20524;-68
2024/03/15 11:45:47;;;;;;;7.22;5.10;;;17.60;95.90;;;;;;5130535;27;20061;-69
2024/03/15 11:48:33;;;;;;;11.93;6.10;;;17.70;95.90;;;;;;5132816;27;20461;-69
2024/03/15 11:51:19;;;;;;;7.53;5.22;;;17.70;95.80;;;;;;5139760;27;20046;-68
2024/03/15 11:54:15;;;;;;;8.45;5.70;;;17.70;95.70;;;;;;5120996;27;20051;-68
2024/03/15 11:57:02;;;;;;;8.80;5.03;;;17.80;95.70;;;;;;5130801;27;20031;-68
2024/03/15 11:59:48;;;;;;;9.60;5.18;;;17.80;95.60;;;;;;5114440;27;20059;-67
2024/03/15 12:02:36;;;;;;;8.73;5.57;;;17.90;95.60;;;;;;5141860;27;20050;-69
2024/03/15 12:05:22;;;;;;;9.07;5.70;;;17.90;95.40;;;;;;5141187;27;20392;-68
2024/03/15 12:08:13;;;;;;;10.75;6.15;;;18.00;95.40;;;;;;5126459;27;20035;-68
2024/03/15 12:10:59;;;;;;;11.30;5.63;;;18.00;95.30;;;;;;5115735;27;20404;-69
2024/03/15 12:13:52;;;;;;;8.30;5.47;;;18.10;95.20;;;;;;5128324;27;20037;-69
2024/03/15 12:16:43;;;;;;;8.10;4.47;;;18.10;95.00;;;;;;5132585;27;20118;-69
2024/03/15 12:19:29;;;;;;;7.20;5.28;;;18.20;94.90;;;;;;5145431;27;20054;-69
2024/03/15 12:22:15;;;;;;;11.52;4.93;;;18.30;94.80;;;;;;5116422;27;20047;-68
2024/03/15 12:25:02;;;;;;;9.05;4.93;;;18.30;94.60;;;;;;5139312;27;20023;-68
2024/03/15 12:27:48;;;;;;;9.38;5.15;;;18.30;94.40;;;;;;5127453;27;20039;-68
2024/03/15 12:30:34;;;;;;;7.43;4.35;;;18.40;94.20;;;;;;5133675;27;20067;-69
2024/03/15 12:33:20;;;;;;;7.53;4.80;;;18.50;94.10;;;;;;5118310;27;20031;-68
2024/03/15 12:36:06;;;;;;;8.52;5.00;;;18.50;93.90;;;;;;5132753;27;20463;-68
2024/03/15 12:38:52;;;;;;;6.13;4.18;;;18.60;93.70;;;;;;5127076;27;20069;-68
2024/03/15 12:41:41;;;;;;;9.32;4.85;;;18.60;93.40;;;;;;5127258;27;20074;-69
2024/03/15 12:44:27;;;;;;;8.63;4.53;;;18.60;93.20;;;;;;5149367;27;20436;-68
2024/03/15 12:47:13;;;;;;;7.43;4.55;;;18.70;93.10;;;;;;5139094;27;20091;-68
2024/03/15 12:49:58;;;;;;;10.90;4.85;;;18.70;92.90;;;;;;5139586;27;20447;-68
2024/03/15 12:52:46;;;;;;;8.82;4.30;;;18.80;92.80;;;;;;5120106;27;20470;-69
2024/03/15 12:55:32;;;;;;;6.57;4.50;;;18.90;92.70;;;;;;5128639;27;20031;-68
2024/03/15 12:58:18;;;;;;;6.32;3.78;;;19.00;92.40;;;;;;5141394;27;20122;-68
2024/03/15 13:01:04;;;;;;;8.70;4.03;;;19.00;92.30;;;;;;5140359;27;20509;-68
2024/03/15 13:03:50;;;;;;;6.80;4.18;;;19.10;92.20;;;;;;5130787;27;20043;-68
2024/03/15 13:06:36;;;;;;;8.77;5.03;;;19.20;92.10;;;;;;5128743;27;20027;-69
2024/03/15 13:09:23;;;;;;;11.40;4.75;;;19.20;91.90;;;;;;5131650;27;20498;-69
2024/03/15 13:12:09;;;;;;;5.93;4.07;;;19.30;91.90;;;;;;5125418;27;20122;-68
2024/03/15 13:14:55;;;;;;;10.43;4.95;;;19.40;91.80;;;;;;5132225;27;20039;-68
2024/03/15 13:17:42;;;;;;;9.63;5.28;;;19.40;91.70;;;;;;5128563;27;20043;-68
2024/03/15 13:20:28;;;;;;;7.47;4.05;;;19.50;91.60;;;;;;5132593;27;20546;-69
2024/03/15 13:23:14;;;;;;;8.88;4.63;;;19.50;91.40;;;;;;5145349;27;20034;-69
2024/03/15 13:26:02;;;;;;;9.10;5.30;;;19.60;91.30;;;;;;5118957;27;20032;-69
2024/03/15 13:28:48;;;;;;;6.75;4.38;;;19.60;91.30;;;;;;5134336;27;20023;-69
2024/03/15 13:31:34;;;;;;;7.63;4.63;;;19.70;91.20;;;;;;5144123;27;20051;-69
2024/03/15 13:34:20;;;;;;;6.88;4.45;;;19.70;91.00;;;;;;5121340;27;20486;-69
2024/03/15 13:37:06;;;;;;;7.07;4.60;;;19.70;91.00;;;;;;5124564;27;20036;-69
2024/03/15 13:39:52;;;;;;;7.75;4.18;;;19.70;91.00;;;;;;5124463;27;20063;-69
2024/03/15 13:42:41;;;;;;;6.53;3.85;;;19.80;90.90;;;;;;5128488;27;20036;-68
2024/03/15 13:45:27;;;;;;;7.22;4.13;;;19.80;90.70;;;;;;5127759;27;20394;-68
2024/03/15 13:48:13;;;;;;;5.90;3.72;;;19.80;90.70;;;;;;5123974;27;20023;-68
2024/03/15 13:50:59;;;;;;;8.13;4.20;;;19.90;90.60;;;;;;5122866;27;20036;-69
2024/03/15 13:53:45;;;;;;;5.88;3.63;;;20.00;90.50;;;;;;5116575;27;20031;-68
2024/03/15 13:56:37;;;;;;;6.45;3.67;;;20.20;90.40;;;;;;5129648;27;20100;-68
2024/03/15 13:59:28;;;;;;;5.78;3.55;;;20.20;90.20;;;;;;5125445;27;20031;-69
2024/03/15 14:02:13;;;;;;;5.95;3.65;;;20.30;90.20;;;;;;5119000;27;20088;-69
2024/03/15 14:04:59;;;;;;;5.90;3.95;;;20.20;90.10;;;;;;5121236;27;20155;-69
2024/03/15 14:07:45;;;;;;;7.25;4.30;;;20.30;90.00;;;;;;5130413;27;20031;-69
2024/03/15 14:10:35;;;;;;;5.72;3.47;;;20.20;90.00;;;;;;5112056;27;20090;-68
2024/03/15 14:13:21;;;;;;;5.07;3.35;;;20.20;90.00;;;;;;5125775;27;20486;-69
2024/03/15 14:16:07;;;;;;;5.75;3.40;;;20.10;90.00;;;;;;5116811;27;20087;-69